createdAt,value
2022-12-17T00:00:07.216Z,98672.00
2022-12-17T00:00:17.199Z,98672.00
2022-12-17T00:00:28.162Z,98672.00
2022-12-17T00:00:37.197Z,98672.00
2022-12-17T00:00:47.136Z,98676.00
2022-12-17T00:00:57.280Z,98672.00
2022-12-17T00:01:07.218Z,98674.00
2022-12-17T00:01:17.131Z,98674.00
2022-12-17T00:01:27.103Z,98674.00
2022-12-17T00:01:37.157Z,98674.00
2022-12-17T00:01:47.283Z,98676.00
2022-12-17T00:01:57.083Z,98674.00
2022-12-17T00:02:07.154Z,98672.00
2022-12-17T00:02:17.151Z,98674.00
2022-12-17T00:02:27.201Z,98674.00
2022-12-17T00:02:37.203Z,98676.00
2022-12-17T00:02:47.172Z,98672.00
2022-12-17T00:02:57.248Z,98676.00
2022-12-17T00:03:07.214Z,98676.00
2022-12-17T00:03:17.487Z,98674.00
2022-12-17T00:03:27.266Z,98674.00
2022-12-17T00:03:37.690Z,98674.00
2022-12-17T00:03:47.308Z,98674.00
2022-12-17T00:03:57.281Z,98676.00
2022-12-17T00:04:07.129Z,98676.00
2022-12-17T00:04:17.230Z,98674.00
2022-12-17T00:04:27.133Z,98672.00
2022-12-17T00:04:37.067Z,98676.00
2022-12-17T00:04:47.086Z,98678.00
2022-12-17T00:04:57.063Z,98676.00
2022-12-17T00:05:07.506Z,98674.00
2022-12-17T00:05:17.087Z,98674.00
2022-12-17T00:05:27.044Z,98674.00
2022-12-17T00:05:37.095Z,98678.00
2022-12-17T00:05:47.045Z,98676.00
2022-12-17T00:05:57.054Z,98676.00
2022-12-17T00:06:08.535Z,98676.00
2022-12-17T00:06:18.516Z,98676.00
2022-12-17T00:06:27.052Z,98680.00
2022-12-17T00:06:37.088Z,98680.00
2022-12-17T00:06:47.055Z,98680.00
2022-12-17T00:06:57.074Z,98680.00
2022-12-17T00:07:07.092Z,98682.00
2022-12-17T00:07:17.046Z,98684.00
2022-12-17T00:07:27.055Z,98680.00
2022-12-17T00:07:37.674Z,98680.00
2022-12-17T00:07:47.035Z,98684.00
2022-12-17T00:07:57.055Z,98682.00
2022-12-17T00:08:07.269Z,98684.00
2022-12-17T00:08:17.078Z,98684.00
2022-12-17T00:08:27.096Z,98684.00
2022-12-17T00:08:37.061Z,98684.00
2022-12-17T00:08:47.025Z,98682.00
2022-12-17T00:08:57.974Z,98684.00
2022-12-17T00:09:08.478Z,98682.00
2022-12-17T00:09:18.494Z,98684.00
2022-12-17T00:09:27.924Z,98682.00
2022-12-17T00:09:37.125Z,98684.00
2022-12-17T00:09:50.224Z,98682.00
2022-12-17T00:09:57.032Z,98684.00
2022-12-17T00:10:07.114Z,98684.00
2022-12-17T00:10:17.014Z,98682.00
2022-12-17T00:10:27.034Z,98682.00
2022-12-17T00:10:37.053Z,98682.00
2022-12-17T00:10:47.016Z,98682.00
2022-12-17T00:10:58.465Z,98682.00
2022-12-17T00:11:07.041Z,98682.00
2022-12-17T00:11:17.034Z,98682.00
2022-12-17T00:11:27.025Z,98684.00
2022-12-17T00:11:37.044Z,98682.00
2022-12-17T00:11:47.008Z,98682.00
2022-12-17T00:11:58.517Z,98682.00
2022-12-17T00:12:07.036Z,98680.00
2022-12-17T00:12:17.025Z,98686.00
2022-12-17T00:12:27.055Z,98680.00
2022-12-17T00:12:37.154Z,98678.00
2022-12-17T00:12:46.996Z,98680.00
2022-12-17T00:12:57.028Z,98680.00
2022-12-17T00:13:08.615Z,98680.00
2022-12-17T00:13:17.004Z,98680.00
2022-12-17T00:13:27.013Z,98684.00
2022-12-17T00:13:37.713Z,98676.00
2022-12-17T00:13:47.015Z,98678.00
2022-12-17T00:13:57.006Z,98682.00
2022-12-17T00:14:08.474Z,98680.00
2022-12-17T00:14:17.005Z,98680.00
2022-12-17T00:14:27.011Z,98678.00
2022-12-17T00:14:38.493Z,98678.00
2022-12-17T00:14:47.015Z,98678.00
2022-12-17T00:14:57.002Z,98682.00
2022-12-17T00:15:07.157Z,98680.00
2022-12-17T00:15:18.452Z,98678.00
2022-12-17T00:15:28.414Z,98678.00
2022-12-17T00:15:37.862Z,98680.00
2022-12-17T00:15:47.018Z,98680.00
2022-12-17T00:15:57.140Z,98682.00
2022-12-17T00:16:07.091Z,98680.00
2022-12-17T00:16:17.143Z,98682.00
2022-12-17T00:16:27.057Z,98682.00
2022-12-17T00:16:37.053Z,98682.00
2022-12-17T00:16:46.995Z,98682.00
2022-12-17T00:16:58.453Z,98682.00
2022-12-17T00:17:06.988Z,98686.00
2022-12-17T00:17:16.990Z,98684.00
2022-12-17T00:17:27.002Z,98686.00
2022-12-17T00:17:37.407Z,98684.00
2022-12-17T00:17:46.967Z,98686.00
2022-12-17T00:17:57.015Z,98686.00
2022-12-17T00:18:07.268Z,98686.00
2022-12-17T00:18:16.969Z,98686.00
2022-12-17T00:18:27.655Z,98688.00
2022-12-17T00:18:37.009Z,98688.00
2022-12-17T00:18:47.084Z,98686.00
2022-12-17T00:18:57.024Z,98686.00
2022-12-17T00:19:06.966Z,98686.00
2022-12-17T00:19:18.415Z,98688.00
2022-12-17T00:19:27.536Z,98688.00
2022-12-17T00:19:36.977Z,98688.00
2022-12-17T00:19:46.966Z,98686.00
2022-12-17T00:19:58.430Z,98688.00
2022-12-17T00:20:06.966Z,98688.00
2022-12-17T00:20:18.445Z,98688.00
2022-12-17T00:20:26.955Z,98688.00
2022-12-17T00:20:38.427Z,98690.00
2022-12-17T00:20:46.953Z,98690.00
2022-12-17T00:20:56.965Z,98690.00
2022-12-17T00:21:06.965Z,98690.00
2022-12-17T00:21:16.966Z,98692.00
2022-12-17T00:21:28.405Z,98692.00
2022-12-17T00:21:37.023Z,98690.00
2022-12-17T00:21:47.745Z,98690.00
2022-12-17T00:21:57.696Z,98692.00
2022-12-17T00:22:07.717Z,98694.00
2022-12-17T00:22:18.403Z,98692.00
2022-12-17T00:22:26.937Z,98690.00
2022-12-17T00:22:36.986Z,98692.00
2022-12-17T00:22:47.737Z,98694.00
2022-12-17T00:22:57.804Z,98696.00
2022-12-17T00:23:08.155Z,98696.00
2022-12-17T00:23:17.864Z,98694.00
2022-12-17T00:23:27.774Z,98692.00
2022-12-17T00:23:38.312Z,98696.00
2022-12-17T00:23:47.809Z,98696.00
2022-12-17T00:23:57.905Z,98696.00
2022-12-17T00:24:06.965Z,98698.00
2022-12-17T00:24:16.926Z,98700.00
2022-12-17T00:24:26.918Z,98698.00
2022-12-17T00:24:36.935Z,98700.00
2022-12-17T00:24:46.924Z,98696.00
2022-12-17T00:24:56.946Z,98694.00
2022-12-17T00:25:07.231Z,98696.00
2022-12-17T00:25:16.921Z,98696.00
2022-12-17T00:25:26.923Z,98696.00
2022-12-17T00:25:36.989Z,98694.00
2022-12-17T00:25:46.927Z,98696.00
2022-12-17T00:25:56.933Z,98702.00
2022-12-17T00:26:06.967Z,98700.00
2022-12-17T00:26:16.966Z,98698.00
2022-12-17T00:26:27.827Z,98702.00
2022-12-17T00:26:37.367Z,98704.00
2022-12-17T00:26:46.916Z,98700.00
2022-12-17T00:26:56.966Z,98700.00
2022-12-17T00:27:07.768Z,98700.00
2022-12-17T00:27:16.936Z,98702.00
2022-12-17T00:27:26.985Z,98700.00
2022-12-17T00:27:36.924Z,98700.00
2022-12-17T00:27:46.955Z,98700.00
2022-12-17T00:27:58.347Z,98704.00
2022-12-17T00:28:06.951Z,98700.00
2022-12-17T00:28:16.896Z,98700.00
2022-12-17T00:28:26.951Z,98702.00
2022-12-17T00:28:36.910Z,98700.00
2022-12-17T00:28:46.907Z,98702.00
2022-12-17T00:28:56.924Z,98702.00
2022-12-17T00:29:06.896Z,98700.00
2022-12-17T00:29:17.093Z,98700.00
2022-12-17T00:29:26.887Z,98702.00
2022-12-17T00:29:38.368Z,98700.00
2022-12-17T00:29:46.896Z,98702.00
2022-12-17T00:29:56.915Z,98700.00
2022-12-17T00:30:07.015Z,98702.00
2022-12-17T00:30:16.916Z,98700.00
2022-12-17T00:30:28.338Z,98700.00
2022-12-17T00:30:36.926Z,98704.00
2022-12-17T00:30:48.337Z,98700.00
2022-12-17T00:30:57.661Z,98706.00
2022-12-17T00:31:06.992Z,98706.00
2022-12-17T00:31:17.281Z,98704.00
2022-12-17T00:31:26.940Z,98706.00
2022-12-17T00:31:37.033Z,98704.00
2022-12-17T00:31:48.463Z,98702.00
2022-12-17T00:31:56.962Z,98700.00
2022-12-17T00:32:06.888Z,98704.00
2022-12-17T00:32:16.888Z,98704.00
2022-12-17T00:32:26.879Z,98700.00
2022-12-17T00:32:36.896Z,98704.00
2022-12-17T00:32:46.877Z,98704.00
2022-12-17T00:32:56.890Z,98704.00
2022-12-17T00:33:08.327Z,98704.00
2022-12-17T00:33:17.687Z,98704.00
2022-12-17T00:33:26.898Z,98707.00
2022-12-17T00:33:37.439Z,98706.00
2022-12-17T00:33:48.318Z,98704.00
2022-12-17T00:33:57.868Z,98704.00
2022-12-17T00:34:06.876Z,98704.00
2022-12-17T00:34:16.877Z,98706.00
2022-12-17T00:34:26.857Z,98707.00
2022-12-17T00:34:36.908Z,98707.00
2022-12-17T00:34:46.900Z,98706.00
2022-12-17T00:34:56.858Z,98704.00
2022-12-17T00:35:06.869Z,98706.00
2022-12-17T00:35:16.879Z,98709.00
2022-12-17T00:35:26.917Z,98709.00
2022-12-17T00:35:36.957Z,98709.00
2022-12-17T00:35:46.860Z,98709.00
2022-12-17T00:35:56.846Z,98709.00
2022-12-17T00:36:06.880Z,98709.00
2022-12-17T00:36:16.897Z,98709.00
2022-12-17T00:36:26.834Z,98709.00
2022-12-17T00:36:36.867Z,98711.00
2022-12-17T00:36:46.841Z,98709.00
2022-12-17T00:36:57.319Z,98706.00
2022-12-17T00:37:08.364Z,98709.00
2022-12-17T00:37:16.837Z,98707.00
2022-12-17T00:37:26.859Z,98709.00
2022-12-17T00:37:36.904Z,98707.00
2022-12-17T00:37:46.837Z,98706.00
2022-12-17T00:37:57.461Z,98709.00
2022-12-17T00:38:06.867Z,98709.00
2022-12-17T00:38:18.296Z,98709.00
2022-12-17T00:38:26.857Z,98709.00
2022-12-17T00:38:36.926Z,98709.00
2022-12-17T00:38:46.826Z,98711.00
2022-12-17T00:38:56.843Z,98709.00
2022-12-17T00:39:06.879Z,98713.00
2022-12-17T00:39:16.849Z,98713.00
2022-12-17T00:39:27.100Z,98713.00
2022-12-17T00:39:36.845Z,98713.00
2022-12-17T00:39:47.552Z,98715.00
2022-12-17T00:39:59.424Z,98713.00
2022-12-17T00:40:06.856Z,98715.00
2022-12-17T00:40:16.859Z,98711.00
2022-12-17T00:40:26.830Z,98715.00
2022-12-17T00:40:36.868Z,98715.00
2022-12-17T00:40:47.609Z,98713.00
2022-12-17T00:40:56.818Z,98713.00
2022-12-17T00:41:06.840Z,98713.00
2022-12-17T00:41:17.618Z,98711.00
2022-12-17T00:41:26.839Z,98711.00
2022-12-17T00:41:36.916Z,98711.00
2022-12-17T00:41:46.808Z,98713.00
2022-12-17T00:41:56.887Z,98715.00
2022-12-17T00:42:06.818Z,98709.00
2022-12-17T00:42:16.830Z,98709.00
2022-12-17T00:42:27.681Z,98713.00
2022-12-17T00:42:36.829Z,98709.00
2022-12-17T00:42:47.698Z,98709.00
2022-12-17T00:42:56.828Z,98709.00
2022-12-17T00:43:08.289Z,98707.00
2022-12-17T00:43:16.816Z,98707.00
2022-12-17T00:43:26.785Z,98713.00
2022-12-17T00:43:38.210Z,98713.00
2022-12-17T00:43:46.815Z,98707.00
2022-12-17T00:43:56.808Z,98707.00
2022-12-17T00:44:06.809Z,98707.00
2022-12-17T00:44:16.809Z,98709.00
2022-12-17T00:44:26.858Z,98711.00
2022-12-17T00:44:36.858Z,98706.00
2022-12-17T00:44:46.794Z,98709.00
2022-12-17T00:44:56.817Z,98709.00
2022-12-17T00:45:06.801Z,98709.00
2022-12-17T00:45:16.896Z,98707.00
2022-12-17T00:45:26.796Z,98711.00
2022-12-17T00:45:36.800Z,98711.00
2022-12-17T00:45:46.827Z,98707.00
2022-12-17T00:45:56.778Z,98713.00
2022-12-17T00:46:06.859Z,98711.00
2022-12-17T00:46:16.887Z,98713.00
2022-12-17T00:46:26.965Z,98713.00
2022-12-17T00:46:36.900Z,98709.00
2022-12-17T00:46:46.866Z,98715.00
2022-12-17T00:46:56.979Z,98715.00
2022-12-17T00:47:06.960Z,98713.00
2022-12-17T00:47:16.768Z,98715.00
2022-12-17T00:47:26.798Z,98713.00
2022-12-17T00:47:36.798Z,98715.00
2022-12-17T00:47:46.778Z,98713.00
2022-12-17T00:47:56.835Z,98713.00
2022-12-17T00:48:08.270Z,98717.00
2022-12-17T00:48:16.807Z,98715.00
2022-12-17T00:48:26.786Z,98711.00
2022-12-17T00:48:37.421Z,98715.00
2022-12-17T00:48:46.762Z,98713.00
2022-12-17T00:48:56.772Z,98713.00
2022-12-17T00:49:06.828Z,98713.00
2022-12-17T00:49:18.217Z,98717.00
2022-12-17T00:49:28.209Z,98719.00
2022-12-17T00:49:38.230Z,98717.00
2022-12-17T00:49:46.809Z,98717.00
2022-12-17T00:49:56.799Z,98717.00
2022-12-17T00:50:06.860Z,98715.00
2022-12-17T00:50:16.772Z,98715.00
2022-12-17T00:50:26.763Z,98715.00
2022-12-17T00:50:38.220Z,98717.00
2022-12-17T00:50:46.840Z,98719.00
2022-12-17T00:50:56.749Z,98717.00
2022-12-17T00:51:06.785Z,98719.00
2022-12-17T00:51:16.759Z,98719.00
2022-12-17T00:51:28.208Z,98721.00
2022-12-17T00:51:36.768Z,98717.00
2022-12-17T00:51:46.740Z,98721.00
2022-12-17T00:51:58.229Z,98721.00
2022-12-17T00:52:08.219Z,98719.00
2022-12-17T00:52:18.200Z,98719.00
2022-12-17T00:52:26.749Z,98719.00
2022-12-17T00:52:36.869Z,98719.00
2022-12-17T00:52:46.739Z,98723.00
2022-12-17T00:52:56.761Z,98717.00
2022-12-17T00:53:06.810Z,98717.00
2022-12-17T00:53:16.752Z,98719.00
2022-12-17T00:53:26.789Z,98719.00
2022-12-17T00:53:37.109Z,98721.00
2022-12-17T00:53:46.791Z,98719.00
2022-12-17T00:53:56.751Z,98719.00
2022-12-17T00:54:06.840Z,98719.00
2022-12-17T00:54:16.730Z,98719.00
2022-12-17T00:54:28.220Z,98715.00
2022-12-17T00:54:36.827Z,98717.00
2022-12-17T00:54:48.197Z,98717.00
2022-12-17T00:54:56.750Z,98715.00
2022-12-17T00:55:06.730Z,98715.00
2022-12-17T00:55:16.770Z,98717.00
2022-12-17T00:55:26.766Z,98717.00
2022-12-17T00:55:36.747Z,98715.00
2022-12-17T00:55:46.772Z,98717.00
2022-12-17T00:55:56.780Z,98717.00
2022-12-17T00:56:08.188Z,98715.00
2022-12-17T00:56:17.690Z,98715.00
2022-12-17T00:56:26.730Z,98719.00
2022-12-17T00:56:36.762Z,98719.00
2022-12-17T00:56:46.763Z,98719.00
2022-12-17T00:56:57.460Z,98725.00
2022-12-17T00:57:08.201Z,98717.00
2022-12-17T00:57:16.759Z,98717.00
2022-12-17T00:57:26.770Z,98717.00
2022-12-17T00:57:36.729Z,98719.00
2022-12-17T00:57:46.770Z,98719.00
2022-12-17T00:57:56.733Z,98719.00
2022-12-17T00:58:06.799Z,98719.00
2022-12-17T00:58:16.757Z,98721.00
2022-12-17T00:58:26.733Z,98719.00
2022-12-17T00:58:36.792Z,98719.00
2022-12-17T00:58:46.809Z,98719.00
2022-12-17T00:58:56.721Z,98721.00
2022-12-17T00:59:06.748Z,98721.00
2022-12-17T00:59:16.719Z,98721.00
2022-12-17T00:59:26.750Z,98721.00
2022-12-17T00:59:36.733Z,98721.00
2022-12-17T00:59:46.720Z,98719.00
2022-12-17T00:59:56.720Z,98723.00
2022-12-17T01:00:06.725Z,98721.00
2022-12-17T01:00:17.659Z,98721.00
2022-12-17T01:00:26.793Z,98723.00
2022-12-17T01:00:36.815Z,98723.00
2022-12-17T01:00:47.644Z,98721.00
2022-12-17T01:00:56.723Z,98721.00
2022-12-17T01:01:08.254Z,98721.00
2022-12-17T01:01:16.843Z,98721.00
2022-12-17T01:01:26.877Z,98721.00
2022-12-17T01:01:36.924Z,98721.00
2022-12-17T01:01:46.883Z,98719.00
2022-12-17T01:01:58.218Z,98719.00
2022-12-17T01:02:06.888Z,98721.00
2022-12-17T01:02:16.760Z,98719.00
2022-12-17T01:02:26.769Z,98721.00
2022-12-17T01:02:36.907Z,98725.00
2022-12-17T01:02:46.904Z,98719.00
2022-12-17T01:02:56.819Z,98723.00
2022-12-17T01:03:08.211Z,98721.00
2022-12-17T01:03:16.761Z,98725.00
2022-12-17T01:03:26.710Z,98721.00
2022-12-17T01:03:38.596Z,98719.00
2022-12-17T01:03:46.696Z,98721.00
2022-12-17T01:03:56.713Z,98723.00
2022-12-17T01:04:06.771Z,98723.00
2022-12-17T01:04:16.672Z,98723.00
2022-12-17T01:04:26.698Z,98723.00
2022-12-17T01:04:36.730Z,98723.00
2022-12-17T01:04:46.683Z,98723.00
2022-12-17T01:04:58.141Z,98725.00
2022-12-17T01:05:07.671Z,98725.00
2022-12-17T01:05:18.131Z,98723.00
2022-12-17T01:05:26.690Z,98723.00
2022-12-17T01:05:38.151Z,98723.00
2022-12-17T01:05:46.661Z,98721.00
2022-12-17T01:05:56.661Z,98723.00
2022-12-17T01:06:06.721Z,98725.00
2022-12-17T01:06:16.689Z,98723.00
2022-12-17T01:06:26.698Z,98721.00
2022-12-17T01:06:36.821Z,98723.00
2022-12-17T01:06:46.671Z,98725.00
2022-12-17T01:06:56.651Z,98723.00
2022-12-17T01:07:06.757Z,98721.00
2022-12-17T01:07:16.642Z,98723.00
2022-12-17T01:07:26.669Z,98723.00
2022-12-17T01:07:36.709Z,98721.00
2022-12-17T01:07:48.090Z,98723.00
2022-12-17T01:07:56.669Z,98721.00
2022-12-17T01:08:08.150Z,98723.00
2022-12-17T01:08:17.609Z,98723.00
2022-12-17T01:08:26.694Z,98723.00
2022-12-17T01:08:36.665Z,98721.00
2022-12-17T01:08:46.674Z,98721.00
2022-12-17T01:08:58.082Z,98721.00
2022-12-17T01:09:06.671Z,98723.00
2022-12-17T01:09:16.631Z,98725.00
2022-12-17T01:09:27.542Z,98725.00
2022-12-17T01:09:36.661Z,98727.00
2022-12-17T01:09:46.671Z,98729.00
2022-12-17T01:09:56.641Z,98729.00
2022-12-17T01:10:06.642Z,98725.00
2022-12-17T01:10:17.466Z,98737.00
2022-12-17T01:10:26.692Z,98729.00
2022-12-17T01:10:36.659Z,98729.00
2022-12-17T01:10:46.971Z,98729.00
2022-12-17T01:10:57.151Z,98727.00
2022-12-17T01:11:06.651Z,98729.00
2022-12-17T01:11:18.123Z,98737.00
2022-12-17T01:11:26.624Z,98729.00
2022-12-17T01:11:36.642Z,98729.00
2022-12-17T01:11:48.069Z,98729.00
2022-12-17T01:11:56.786Z,98737.00
2022-12-17T01:12:06.668Z,98737.00
2022-12-17T01:12:16.630Z,98737.00
2022-12-17T01:12:28.081Z,98729.00
2022-12-17T01:12:36.643Z,98737.00
2022-12-17T01:12:46.729Z,98729.00
2022-12-17T01:12:56.602Z,98727.00
2022-12-17T01:13:06.688Z,98725.00
2022-12-17T01:13:16.619Z,98729.00
2022-12-17T01:13:28.065Z,98727.00
2022-12-17T01:13:37.002Z,98727.00
2022-12-17T01:13:46.633Z,98725.00
2022-12-17T01:13:56.592Z,98727.00
2022-12-17T01:14:07.062Z,98727.00
2022-12-17T01:14:16.604Z,98729.00
2022-12-17T01:14:28.060Z,98729.00
2022-12-17T01:14:37.071Z,98729.00
2022-12-17T01:14:46.590Z,98729.00
2022-12-17T01:14:56.623Z,98727.00
2022-12-17T01:15:06.751Z,98729.00
2022-12-17T01:15:18.047Z,98727.00
2022-12-17T01:15:26.592Z,98725.00
2022-12-17T01:15:36.623Z,98727.00
2022-12-17T01:15:47.092Z,98729.00
2022-12-17T01:15:56.791Z,98729.00
2022-12-17T01:16:07.421Z,98729.00
2022-12-17T01:16:16.619Z,98729.00
2022-12-17T01:16:28.087Z,98729.00
2022-12-17T01:16:36.699Z,98739.00
2022-12-17T01:16:46.669Z,98737.00
2022-12-17T01:16:58.062Z,98729.00
2022-12-17T01:17:06.593Z,98737.00
2022-12-17T01:17:16.582Z,98739.00
2022-12-17T01:17:27.130Z,98739.00
2022-12-17T01:17:37.529Z,98739.00
2022-12-17T01:17:48.087Z,98741.00
2022-12-17T01:17:57.128Z,98743.00
2022-12-17T01:18:06.602Z,98737.00
2022-12-17T01:18:17.172Z,98737.00
2022-12-17T01:18:27.159Z,98741.00
2022-12-17T01:18:36.703Z,98739.00
2022-12-17T01:18:46.594Z,98739.00
2022-12-17T01:18:56.603Z,98739.00
2022-12-17T01:19:08.034Z,98741.00
2022-12-17T01:19:16.581Z,98739.00
2022-12-17T01:19:26.562Z,98739.00
2022-12-17T01:19:36.593Z,98739.00
2022-12-17T01:19:46.649Z,98741.00
2022-12-17T01:19:56.561Z,98741.00
2022-12-17T01:20:08.037Z,98739.00
2022-12-17T01:20:16.584Z,98741.00
2022-12-17T01:20:26.584Z,98741.00
2022-12-17T01:20:37.493Z,98741.00
2022-12-17T01:20:46.654Z,98739.00
2022-12-17T01:20:56.553Z,98729.00
2022-12-17T01:21:08.031Z,98739.00
2022-12-17T01:21:16.596Z,98739.00
2022-12-17T01:21:26.568Z,98737.00
2022-12-17T01:21:36.563Z,98739.00
2022-12-17T01:21:46.562Z,98739.00
2022-12-17T01:21:56.561Z,98737.00
2022-12-17T01:22:08.011Z,98741.00
2022-12-17T01:22:16.593Z,98739.00
2022-12-17T01:22:26.559Z,98739.00
2022-12-17T01:22:36.693Z,98741.00
2022-12-17T01:22:46.567Z,98737.00
2022-12-17T01:22:56.624Z,98739.00
2022-12-17T01:23:06.602Z,98737.00
2022-12-17T01:23:16.582Z,98739.00
2022-12-17T01:23:26.580Z,98739.00
2022-12-17T01:23:37.069Z,98739.00
2022-12-17T01:23:48.007Z,98739.00
2022-12-17T01:23:56.533Z,98737.00
2022-12-17T01:24:06.615Z,98737.00
2022-12-17T01:24:18.004Z,98737.00
2022-12-17T01:24:26.546Z,98737.00
2022-12-17T01:24:36.613Z,98743.00
2022-12-17T01:24:46.541Z,98737.00
2022-12-17T01:24:56.543Z,98737.00
2022-12-17T01:25:06.562Z,98737.00
2022-12-17T01:25:16.596Z,98743.00
2022-12-17T01:25:26.544Z,98743.00
2022-12-17T01:25:36.563Z,98741.00
2022-12-17T01:25:46.563Z,98745.00
2022-12-17T01:25:56.552Z,98737.00
2022-12-17T01:26:06.533Z,98741.00
2022-12-17T01:26:16.574Z,98741.00
2022-12-17T01:26:26.541Z,98741.00
2022-12-17T01:26:36.558Z,98739.00
2022-12-17T01:26:47.994Z,98741.00
2022-12-17T01:26:56.526Z,98739.00
2022-12-17T01:27:06.635Z,98739.00
2022-12-17T01:27:16.522Z,98741.00
2022-12-17T01:27:27.990Z,98741.00
2022-12-17T01:27:37.983Z,98739.00
2022-12-17T01:27:46.544Z,98741.00
2022-12-17T01:27:57.305Z,98741.00
2022-12-17T01:28:06.554Z,98743.00
2022-12-17T01:28:16.571Z,98741.00
2022-12-17T01:28:26.505Z,98741.00
2022-12-17T01:28:36.583Z,98743.00
2022-12-17T01:28:46.523Z,98743.00
2022-12-17T01:28:57.963Z,98743.00
2022-12-17T01:29:06.644Z,98745.00
2022-12-17T01:29:17.987Z,98743.00
2022-12-17T01:29:26.520Z,98741.00
2022-12-17T01:29:37.394Z,98743.00
2022-12-17T01:29:46.790Z,98745.00
2022-12-17T01:29:56.515Z,98745.00
2022-12-17T01:30:06.537Z,98747.00
2022-12-17T01:30:16.593Z,98747.00
2022-12-17T01:30:26.494Z,98745.00
2022-12-17T01:30:36.553Z,98745.00
2022-12-17T01:30:46.493Z,98743.00
2022-12-17T01:30:56.522Z,98743.00
2022-12-17T01:31:06.547Z,98745.00
2022-12-17T01:31:18.054Z,98743.00
2022-12-17T01:31:32.907Z,98745.00
2022-12-17T01:31:38.054Z,98747.00
2022-12-17T01:31:47.144Z,98745.00
2022-12-17T01:31:57.190Z,98745.00
2022-12-17T01:32:07.173Z,98745.00
2022-12-17T01:32:17.084Z,98745.00
2022-12-17T01:32:27.073Z,98745.00
2022-12-17T01:32:37.082Z,98745.00
2022-12-17T01:32:48.514Z,98749.00
2022-12-17T01:32:57.102Z,98747.00
2022-12-17T01:33:07.113Z,98745.00
2022-12-17T01:33:17.068Z,98745.00
2022-12-17T01:33:27.158Z,98745.00
2022-12-17T01:33:39.068Z,98749.00
2022-12-17T01:33:48.684Z,98747.00
2022-12-17T01:33:57.234Z,98749.00
2022-12-17T01:34:07.996Z,98749.00
2022-12-17T01:34:17.253Z,98751.00
2022-12-17T01:34:27.254Z,98751.00
2022-12-17T01:34:37.291Z,98753.00
2022-12-17T01:34:47.243Z,98749.00
2022-12-17T01:34:57.244Z,98753.00
2022-12-17T01:35:07.254Z,98751.00
2022-12-17T01:35:17.266Z,98751.00
2022-12-17T01:35:27.213Z,98751.00
2022-12-17T01:35:37.295Z,98751.00
2022-12-17T01:35:47.245Z,98753.00
2022-12-17T01:35:57.253Z,98753.00
2022-12-17T01:36:07.245Z,98749.00
2022-12-17T01:36:17.264Z,98753.00
2022-12-17T01:36:27.234Z,98751.00
2022-12-17T01:36:37.234Z,98749.00
2022-12-17T01:36:47.255Z,98749.00
2022-12-17T01:36:57.292Z,98749.00
2022-12-17T01:37:08.694Z,98755.00
2022-12-17T01:37:18.685Z,98751.00
2022-12-17T01:37:27.673Z,98749.00
2022-12-17T01:37:37.320Z,98749.00
2022-12-17T01:37:47.214Z,98753.00
2022-12-17T01:37:57.228Z,98749.00
2022-12-17T01:38:07.235Z,98747.00
2022-12-17T01:38:17.248Z,98749.00
2022-12-17T01:38:27.215Z,98747.00
2022-12-17T01:38:37.236Z,98749.00
2022-12-17T01:38:47.214Z,98751.00
2022-12-17T01:38:57.232Z,98751.00
2022-12-17T01:39:07.227Z,98749.00
2022-12-17T01:39:17.206Z,98747.00
2022-12-17T01:39:27.991Z,98751.00
2022-12-17T01:39:37.217Z,98751.00
2022-12-17T01:39:47.239Z,98751.00
2022-12-17T01:39:57.944Z,98753.00
2022-12-17T01:40:07.415Z,98751.00
2022-12-17T01:40:17.193Z,98749.00
2022-12-17T01:40:27.213Z,98749.00
2022-12-17T01:40:37.405Z,98751.00
2022-12-17T01:40:47.205Z,98749.00
2022-12-17T01:40:57.189Z,98753.00
2022-12-17T01:41:07.195Z,98751.00
2022-12-17T01:41:17.205Z,98753.00
2022-12-17T01:41:27.296Z,98753.00
2022-12-17T01:41:38.037Z,98753.00
2022-12-17T01:41:47.305Z,98753.00
2022-12-17T01:41:58.645Z,98751.00
2022-12-17T01:42:07.204Z,98753.00
2022-12-17T01:42:17.247Z,98753.00
2022-12-17T01:42:27.165Z,98755.00
2022-12-17T01:42:37.222Z,98755.00
2022-12-17T01:42:47.176Z,98755.00
2022-12-17T01:42:58.635Z,98753.00
2022-12-17T01:43:07.395Z,98755.00
2022-12-17T01:43:17.166Z,98755.00
2022-12-17T01:43:27.174Z,98755.00
2022-12-17T01:43:37.552Z,98755.00
2022-12-17T01:43:47.167Z,98753.00
2022-12-17T01:43:57.184Z,98753.00
2022-12-17T01:44:07.210Z,98751.00
2022-12-17T01:44:17.214Z,98755.00
2022-12-17T01:44:27.166Z,98751.00
2022-12-17T01:44:37.248Z,98755.00
2022-12-17T01:44:47.176Z,98753.00
2022-12-17T01:44:57.181Z,98751.00
2022-12-17T01:45:07.670Z,98751.00
2022-12-17T01:45:18.614Z,98753.00
2022-12-17T01:45:28.659Z,98751.00
2022-12-17T01:45:38.662Z,98751.00
2022-12-17T01:45:47.281Z,98751.00
2022-12-17T01:45:57.246Z,98751.00
2022-12-17T01:46:08.694Z,98753.00
2022-12-17T01:46:18.644Z,98751.00
2022-12-17T01:46:27.721Z,98753.00
2022-12-17T01:46:37.160Z,98755.00
2022-12-17T01:46:47.144Z,98753.00
2022-12-17T01:46:57.200Z,98753.00
2022-12-17T01:47:07.184Z,98753.00
2022-12-17T01:47:17.188Z,98753.00
2022-12-17T01:47:27.185Z,98753.00
2022-12-17T01:47:37.218Z,98755.00
2022-12-17T01:47:47.114Z,98755.00
2022-12-17T01:47:57.134Z,98753.00
2022-12-17T01:48:08.673Z,98753.00
2022-12-17T01:48:17.145Z,98753.00
2022-12-17T01:48:27.156Z,98753.00
2022-12-17T01:48:38.600Z,98753.00
2022-12-17T01:48:47.133Z,98753.00
2022-12-17T01:48:57.147Z,98755.00
2022-12-17T01:49:08.088Z,98753.00
2022-12-17T01:49:17.155Z,98755.00
2022-12-17T01:49:27.167Z,98753.00
2022-12-17T01:49:37.134Z,98753.00
2022-12-17T01:49:47.167Z,98753.00
2022-12-17T01:49:57.146Z,98753.00
2022-12-17T01:50:08.587Z,98755.00
2022-12-17T01:50:17.292Z,98753.00
2022-12-17T01:50:27.140Z,98751.00
2022-12-17T01:50:37.195Z,98753.00
2022-12-17T01:50:47.106Z,98755.00
2022-12-17T01:50:58.586Z,98755.00
2022-12-17T01:51:07.165Z,98753.00
2022-12-17T01:51:17.106Z,98753.00
2022-12-17T01:51:27.149Z,98753.00
2022-12-17T01:51:37.166Z,98751.00
2022-12-17T01:51:47.115Z,98753.00
2022-12-17T01:51:57.182Z,98753.00
2022-12-17T01:52:07.117Z,98753.00
2022-12-17T01:52:18.590Z,98751.00
2022-12-17T01:52:28.566Z,98751.00
2022-12-17T01:52:38.107Z,98753.00
2022-12-17T01:52:48.556Z,98751.00
2022-12-17T01:52:58.557Z,98751.00
2022-12-17T01:53:07.206Z,98753.00
2022-12-17T01:53:17.145Z,98753.00
2022-12-17T01:53:27.098Z,98755.00
2022-12-17T01:53:37.574Z,98753.00
2022-12-17T01:53:47.091Z,98753.00
2022-12-17T01:53:57.105Z,98753.00
2022-12-17T01:54:07.146Z,98753.00
2022-12-17T01:54:18.575Z,98753.00
2022-12-17T01:54:27.094Z,98755.00
2022-12-17T01:54:37.126Z,98757.00
2022-12-17T01:54:47.089Z,98759.00
2022-12-17T01:54:57.099Z,98757.00
2022-12-17T01:55:07.137Z,98759.00
2022-12-17T01:55:17.247Z,98759.00
2022-12-17T01:55:27.081Z,98759.00
2022-12-17T01:55:37.978Z,98757.00
2022-12-17T01:55:47.133Z,98761.00
2022-12-17T01:55:57.194Z,98759.00
2022-12-17T01:56:08.539Z,98759.00
2022-12-17T01:56:17.090Z,98761.00
2022-12-17T01:56:27.107Z,98763.00
2022-12-17T01:56:37.136Z,98763.00
2022-12-17T01:56:47.087Z,98763.00
2022-12-17T01:56:57.097Z,98763.00
2022-12-17T01:57:07.137Z,98765.00
2022-12-17T01:57:17.098Z,98761.00
2022-12-17T01:57:28.056Z,98765.00